sensor_id;sensor_type;location;lat;lon;timestamp;pressure;altitude;pressure_sealevel;temperature
67966;BMP280;54749;47.850;9.002;2023-10-19T00:00:37;94496.75;;;8.89
67966;BMP280;54749;47.850;9.002;2023-10-19T00:03:31;94499.81;;;8.83
67966;BMP280;54749;47.850;9.002;2023-10-19T00:05:59;94520.41;;;8.79
67966;BMP280;54749;47.850;9.002;2023-10-19T00:08:26;94510.31;;;8.79
67966;BMP280;54749;47.850;9.002;2023-10-19T00:11:03;94487.81;;;8.77
67966;BMP280;54749;47.850;9.002;2023-10-19T00:13:39;94479.19;;;8.80
67966;BMP280;54749;47.850;9.002;2023-10-19T00:16:08;94474.81;;;8.82
67966;BMP280;54749;47.850;9.002;2023-10-19T00:18:45;94468.69;;;8.84
67966;BMP280;54749;47.850;9.002;2023-10-19T00:21:16;94461.78;;;8.86
67966;BMP280;54749;47.850;9.002;2023-10-19T00:23:55;94478.34;;;8.89
67966;BMP280;54749;47.850;9.002;2023-10-19T00:26:25;94485.75;;;8.90
67966;BMP280;54749;47.850;9.002;2023-10-19T00:28:57;94481.09;;;8.95
67966;BMP280;54749;47.850;9.002;2023-10-19T00:31:25;94480.81;;;8.98
67966;BMP280;54749;47.850;9.002;2023-10-19T00:33:56;94479.88;;;8.99
67966;BMP280;54749;47.850;9.002;2023-10-19T00:36:24;94475.47;;;9.01
67966;BMP280;54749;47.850;9.002;2023-10-19T00:38:52;94467.78;;;9.02
67966;BMP280;54749;47.850;9.002;2023-10-19T00:41:22;94481.84;;;9.05
67966;BMP280;54749;47.850;9.002;2023-10-19T00:43:58;94469.25;;;9.05
67966;BMP280;54749;47.850;9.002;2023-10-19T00:46:39;94474.91;;;9.07
67966;BMP280;54749;47.850;9.002;2023-10-19T00:49:12;94463.00;;;9.09
67966;BMP280;54749;47.850;9.002;2023-10-19T00:51:45;94463.00;;;9.09
67966;BMP280;54749;47.850;9.002;2023-10-19T00:54:25;94468.03;;;9.09
67966;BMP280;54749;47.850;9.002;2023-10-19T00:57:03;94461.41;;;9.08
67966;BMP280;54749;47.850;9.002;2023-10-19T00:59:38;94453.53;;;9.10
67966;BMP280;54749;47.850;9.002;2023-10-19T01:02:10;94454.47;;;9.09
67966;BMP280;54749;47.850;9.002;2023-10-19T01:04:50;94449.44;;;9.09
67966;BMP280;54749;47.850;9.002;2023-10-19T01:07:19;94446.28;;;9.08
67966;BMP280;54749;47.850;9.002;2023-10-19T01:09:49;94450.03;;;9.04
67966;BMP280;54749;47.850;9.002;2023-10-19T01:12:22;94442.09;;;8.99
67966;BMP280;54749;47.850;9.002;2023-10-19T01:15:08;94433.06;;;8.96
67966;BMP280;54749;47.850;9.002;2023-10-19T01:17:58;94411.19;;;8.97
67966;BMP280;54749;47.850;9.002;2023-10-19T01:20:27;94420.34;;;8.98
67966;BMP280;54749;47.850;9.002;2023-10-19T01:23:02;94416.91;;;8.99
67966;BMP280;54749;47.850;9.002;2023-10-19T01:28:41;94397.13;;;9.04
67966;BMP280;54749;47.850;9.002;2023-10-19T01:31:19;94394.44;;;9.05
67966;BMP280;54749;47.850;9.002;2023-10-19T01:33:59;94395.09;;;9.07
67966;BMP280;54749;47.850;9.002;2023-10-19T01:36:34;94411.00;;;9.08
67966;BMP280;54749;47.850;9.002;2023-10-19T01:39:11;94416.84;;;9.08
67966;BMP280;54749;47.850;9.002;2023-10-19T01:41:39;94416.97;;;9.07
67966;BMP280;54749;47.850;9.002;2023-10-19T01:44:08;94424.03;;;9.03
67966;BMP280;54749;47.850;9.002;2023-10-19T01:46:41;94424.47;;;8.99
67966;BMP280;54749;47.850;9.002;2023-10-19T01:49:11;94399.41;;;8.97
67966;BMP280;54749;47.850;9.002;2023-10-19T01:51:38;94412.41;;;8.93
67966;BMP280;54749;47.850;9.002;2023-10-19T01:54:07;94406.22;;;8.88
67966;BMP280;54749;47.850;9.002;2023-10-19T01:56:34;94405.09;;;8.82
67966;BMP280;54749;47.850;9.002;2023-10-19T01:59:03;94403.78;;;8.78
67966;BMP280;54749;47.850;9.002;2023-10-19T02:01:31;94408.03;;;8.78
67966;BMP280;54749;47.850;9.002;2023-10-19T02:04:03;94386.78;;;8.80
67966;BMP280;54749;47.850;9.002;2023-10-19T02:06:33;94401.91;;;8.80
67966;BMP280;54749;47.850;9.002;2023-10-19T02:09:12;94392.75;;;8.79
67966;BMP280;54749;47.850;9.002;2023-10-19T02:11:52;94379.09;;;8.82
67966;BMP280;54749;47.850;9.002;2023-10-19T02:14:20;94372.34;;;8.82
67966;BMP280;54749;47.850;9.002;2023-10-19T02:16:49;94366.34;;;8.83
67966;BMP280;54749;47.850;9.002;2023-10-19T02:19:21;94381.47;;;8.83
67966;BMP280;54749;47.850;9.002;2023-10-19T02:21:50;94402.94;;;8.87
67966;BMP280;54749;47.850;9.002;2023-10-19T02:24:19;94388.31;;;8.91
67966;BMP280;54749;47.850;9.002;2023-10-19T02:26:50;94415.59;;;8.95
67966;BMP280;54749;47.850;9.002;2023-10-19T02:29:19;94390.91;;;8.98
67966;BMP280;54749;47.850;9.002;2023-10-19T02:31:46;94395.81;;;9.00
67966;BMP280;54749;47.850;9.002;2023-10-19T02:34:15;94391.41;;;9.02
67966;BMP280;54749;47.850;9.002;2023-10-19T02:36:43;94386.09;;;9.05
67966;BMP280;54749;47.850;9.002;2023-10-19T02:39:12;94365.66;;;9.08
67966;BMP280;54749;47.850;9.002;2023-10-19T02:41:44;94340.28;;;9.09
67966;BMP280;54749;47.850;9.002;2023-10-19T02:44:15;94350.53;;;9.08
67966;BMP280;54749;47.850;9.002;2023-10-19T02:46:46;94335.44;;;9.08
67966;BMP280;54749;47.850;9.002;2023-10-19T02:49:15;94350.53;;;9.08
67966;BMP280;54749;47.850;9.002;2023-10-19T02:51:48;94311.03;;;9.08
67966;BMP280;54749;47.850;9.002;2023-10-19T02:54:21;94338.88;;;9.07
67966;BMP280;54749;47.850;9.002;2023-10-19T02:56:53;94320.75;;;9.03
67966;BMP280;54749;47.850;9.002;2023-10-19T02:59:22;94305.75;;;9.02
67966;BMP280;54749;47.850;9.002;2023-10-19T03:01:53;94312.38;;;9.03
67966;BMP280;54749;47.850;9.002;2023-10-19T03:04:44;94308.63;;;9.07
67966;BMP280;54749;47.850;9.002;2023-10-19T03:07:13;94310.84;;;9.09
67966;BMP280;54749;47.850;9.002;2023-10-19T03:09:42;94303.97;;;9.11
67966;BMP280;54749;47.850;9.002;2023-10-19T03:12:21;94319.06;;;9.11
67966;BMP280;54749;47.850;9.002;2023-10-19T03:14:52;94303.97;;;9.11
67966;BMP280;54749;47.850;9.002;2023-10-19T03:17:20;94317.19;;;9.13
67966;BMP280;54749;47.850;9.002;2023-10-19T03:19:48;94301.44;;;9.11
67966;BMP280;54749;47.850;9.002;2023-10-19T03:22:15;94274.78;;;9.09
67966;BMP280;54749;47.850;9.002;2023-10-19T03:24:44;94283.59;;;9.05
67966;BMP280;54749;47.850;9.002;2023-10-19T03:27:13;94282.16;;;9.03
67966;BMP280;54749;47.850;9.002;2023-10-19T03:29:46;94287.19;;;9.03
67966;BMP280;54749;47.850;9.002;2023-10-19T03:32:15;94284.81;;;9.01
67966;BMP280;54749;47.850;9.002;2023-10-19T03:34:49;94304.78;;;8.95
67966;BMP280;54749;47.850;9.002;2023-10-19T03:37:18;94319.22;;;8.93
67966;BMP280;54749;47.850;9.002;2023-10-19T03:39:48;94309.59;;;8.89
67966;BMP280;54749;47.850;9.002;2023-10-19T03:42:16;94302.31;;;8.86
67966;BMP280;54749;47.850;9.002;2023-10-19T03:44:43;94319.47;;;8.82
67966;BMP280;54749;47.850;9.002;2023-10-19T03:47:16;94303.81;;;8.79
67966;BMP280;54749;47.850;9.002;2023-10-19T03:49:48;94306.13;;;8.73
67966;BMP280;54749;47.850;9.002;2023-10-19T03:52:19;94307.78;;;8.64
67966;BMP280;54749;47.850;9.002;2023-10-19T03:54:48;94306.63;;;8.59
67966;BMP280;54749;47.850;9.002;2023-10-19T03:57:17;94307.97;;;8.54
67966;BMP280;54749;47.850;9.002;2023-10-19T03:59:52;94302.75;;;8.47
67966;BMP280;54749;47.850;9.002;2023-10-19T04:02:24;94308.72;;;8.46
67966;BMP280;54749;47.850;9.002;2023-10-19T04:04:53;94300.66;;;8.43
67966;BMP280;54749;47.850;9.002;2023-10-19T04:07:25;94314.56;;;8.64
67966;BMP280;54749;47.850;9.002;2023-10-19T04:09:55;94302.75;;;8.81
67966;BMP280;54749;47.850;9.002;2023-10-19T04:12:38;94313.13;;;8.78
67966;BMP280;54749;47.850;9.002;2023-10-19T04:15:10;94311.81;;;8.74
67966;BMP280;54749;47.850;9.002;2023-10-19T04:17:44;94304.41;;;8.73
67966;BMP280;54749;47.850;9.002;2023-10-19T04:20:17;94297.78;;;8.72
67966;BMP280;54749;47.850;9.002;2023-10-19T04:22:45;94292.63;;;8.74
67966;BMP280;54749;47.850;9.002;2023-10-19T04:25:13;94288.81;;;8.70
67966;BMP280;54749;47.850;9.002;2023-10-19T04:27:43;94273.03;;;8.68
67966;BMP280;54749;47.850;9.002;2023-10-19T04:30:12;94269.59;;;8.69
67966;BMP280;54749;47.850;9.002;2023-10-19T04:32:43;94264.41;;;8.70
67966;BMP280;54749;47.850;9.002;2023-10-19T04:35:12;94266.78;;;8.72
67966;BMP280;54749;47.850;9.002;2023-10-19T04:37:52;94281.59;;;8.74
67966;BMP280;54749;47.850;9.002;2023-10-19T04:40:21;94261.44;;;8.74
67966;BMP280;54749;47.850;9.002;2023-10-19T04:42:53;94263.19;;;8.74
67966;BMP280;54749;47.850;9.002;2023-10-19T04:45:22;94279.38;;;8.72
67966;BMP280;54749;47.850;9.002;2023-10-19T04:47:52;94266.00;;;8.71
67966;BMP280;54749;47.850;9.002;2023-10-19T04:50:20;94274.63;;;8.69
67966;BMP280;54749;47.850;9.002;2023-10-19T04:52:47;94275.25;;;8.71
67966;BMP280;54749;47.850;9.002;2023-10-19T04:55:15;94278.16;;;8.75
67966;BMP280;54749;47.850;9.002;2023-10-19T04:57:42;94249.22;;;8.79
67966;BMP280;54749;47.850;9.002;2023-10-19T05:00:10;94259.81;;;8.83
67966;BMP280;54749;47.850;9.002;2023-10-19T05:02:41;94273.81;;;8.85
67966;BMP280;54749;47.850;9.002;2023-10-19T05:05:09;94246.91;;;8.86
67966;BMP280;54749;47.850;9.002;2023-10-19T05:07:36;94270.38;;;8.86
67966;BMP280;54749;47.850;9.002;2023-10-19T05:10:04;94257.13;;;8.84
67966;BMP280;54749;47.850;9.002;2023-10-19T05:12:32;94255.28;;;8.86
67966;BMP280;54749;47.850;9.002;2023-10-19T05:14:59;94265.03;;;8.89
67966;BMP280;54749;47.850;9.002;2023-10-19T05:17:27;94240.66;;;8.90
67966;BMP280;54749;47.850;9.002;2023-10-19T05:19:54;94247.78;;;8.94
67966;BMP280;54749;47.850;9.002;2023-10-19T05:22:23;94260.22;;;8.95
67966;BMP280;54749;47.850;9.002;2023-10-19T05:24:52;94265.25;;;8.95
67966;BMP280;54749;47.850;9.002;2023-10-19T05:27:19;94233.16;;;8.97
67966;BMP280;54749;47.850;9.002;2023-10-19T05:29:47;94258.34;;;8.97
67966;BMP280;54749;47.850;9.002;2023-10-19T05:32:14;94256.47;;;8.99
67966;BMP280;54749;47.850;9.002;2023-10-19T05:34:41;94244.50;;;9.01
67966;BMP280;54749;47.850;9.002;2023-10-19T05:37:09;94253.03;;;9.00
67966;BMP280;54749;47.850;9.002;2023-10-19T05:39:37;94257.28;;;9.00
67966;BMP280;54749;47.850;9.002;2023-10-19T05:42:04;94255.97;;;8.96
67966;BMP280;54749;47.850;9.002;2023-10-19T05:44:32;94254.97;;;8.89
67966;BMP280;54749;47.850;9.002;2023-10-19T05:47:00;94244.25;;;8.87
67966;BMP280;54749;47.850;9.002;2023-10-19T05:49:27;94239.84;;;8.89
67966;BMP280;54749;47.850;9.002;2023-10-19T05:51:58;94249.63;;;8.92
67966;BMP280;54749;47.850;9.002;2023-10-19T05:54:26;94235.19;;;8.94
67966;BMP280;54749;47.850;9.002;2023-10-19T05:56:54;94216.63;;;8.95
67966;BMP280;54749;47.850;9.002;2023-10-19T05:59:21;94229.84;;;8.97
67966;BMP280;54749;47.850;9.002;2023-10-19T06:01:50;94236.81;;;9.03
67966;BMP280;54749;47.850;9.002;2023-10-19T06:04:18;94222.34;;;9.05
67966;BMP280;54749;47.850;9.002;2023-10-19T06:06:48;94219.53;;;9.08
67966;BMP280;54749;47.850;9.002;2023-10-19T06:09:16;94222.06;;;9.08
67966;BMP280;54749;47.850;9.002;2023-10-19T06:11:45;94217.81;;;9.08
67966;BMP280;54749;47.850;9.002;2023-10-19T06:14:12;94218.66;;;9.16
67966;BMP280;54749;47.850;9.002;2023-10-19T06:16:40;94204.00;;;9.20
67966;BMP280;54749;47.850;9.002;2023-10-19T06:19:07;94213.00;;;9.22
67966;BMP280;54749;47.850;9.002;2023-10-19T06:21:36;94201.53;;;9.27
67966;BMP280;54749;47.850;9.002;2023-10-19T06:24:04;94217.94;;;9.31
67966;BMP280;54749;47.850;9.002;2023-10-19T06:26:31;94193.53;;;9.32
67966;BMP280;54749;47.850;9.002;2023-10-19T06:28:58;94198.28;;;9.35
67966;BMP280;54749;47.850;9.002;2023-10-19T06:31:27;94214.38;;;9.42
67966;BMP280;54749;47.850;9.002;2023-10-19T06:33:56;94189.38;;;9.48
67966;BMP280;54749;47.850;9.002;2023-10-19T06:36:25;94191.41;;;9.52
67966;BMP280;54749;47.850;9.002;2023-10-19T06:38:52;94190.19;;;9.56
67966;BMP280;54749;47.850;9.002;2023-10-19T06:41:22;94194.78;;;9.61
67966;BMP280;54749;47.850;9.002;2023-10-19T06:43:49;94195.25;;;9.64
67966;BMP280;54749;47.850;9.002;2023-10-19T06:46:17;94192.44;;;9.67
67966;BMP280;54749;47.850;9.002;2023-10-19T06:48:44;94186.44;;;9.68
67966;BMP280;54749;47.850;9.002;2023-10-19T06:51:12;94178.09;;;9.67
67966;BMP280;54749;47.850;9.002;2023-10-19T06:53:39;94181.56;;;9.66
67966;BMP280;54749;47.850;9.002;2023-10-19T06:56:06;94194.00;;;9.60
67966;BMP280;54749;47.850;9.002;2023-10-19T06:58:33;94189.75;;;9.61
67966;BMP280;54749;47.850;9.002;2023-10-19T07:01:01;94192.88;;;9.62
67966;BMP280;54749;47.850;9.002;2023-10-19T07:03:35;94177.63;;;9.64
67966;BMP280;54749;47.850;9.002;2023-10-19T07:06:03;94178.44;;;9.72
67966;BMP280;54749;47.850;9.002;2023-10-19T07:08:39;94178.63;;;9.79
67966;BMP280;54749;47.850;9.002;2023-10-19T07:11:06;94195.53;;;9.86
67966;BMP280;54749;47.850;9.002;2023-10-19T07:13:34;94188.00;;;9.94
67966;BMP280;54749;47.850;9.002;2023-10-19T07:16:01;94181.88;;;10.04
67966;BMP280;54749;47.850;9.002;2023-10-19T07:18:30;94193.25;;;10.08
67966;BMP280;54749;47.850;9.002;2023-10-19T07:20:58;94179.97;;;10.14
67966;BMP280;54749;47.850;9.002;2023-10-19T07:23:31;94184.75;;;10.16
67966;BMP280;54749;47.850;9.002;2023-10-19T07:25:59;94170.88;;;10.20
67966;BMP280;54749;47.850;9.002;2023-10-19T07:28:29;94172.13;;;10.24
67966;BMP280;54749;47.850;9.002;2023-10-19T07:30:58;94170.88;;;10.28
67966;BMP280;54749;47.850;9.002;2023-10-19T07:33:28;94170.41;;;10.32
67966;BMP280;54749;47.850;9.002;2023-10-19T07:35:56;94148.78;;;10.38
67966;BMP280;54749;47.850;9.002;2023-10-19T07:38:27;94155.91;;;10.42
67966;BMP280;54749;47.850;9.002;2023-10-19T07:40:58;94175.94;;;10.51
67966;BMP280;54749;47.850;9.002;2023-10-19T07:43:24;94142.00;;;10.62
67966;BMP280;54749;47.850;9.002;2023-10-19T07:45:53;94151.00;;;10.72
67966;BMP280;54749;47.850;9.002;2023-10-19T07:48:20;94154.16;;;10.82
67966;BMP280;54749;47.850;9.002;2023-10-19T07:50:48;94153.97;;;10.91
67966;BMP280;54749;47.850;9.002;2023-10-19T07:53:15;94150.66;;;10.98
67966;BMP280;54749;47.850;9.002;2023-10-19T07:55:42;94144.94;;;11.04
67966;BMP280;54749;47.850;9.002;2023-10-19T07:58:10;94159.81;;;11.07
67966;BMP280;54749;47.850;9.002;2023-10-19T08:00:38;94146.22;;;11.08
67966;BMP280;54749;47.850;9.002;2023-10-19T08:03:06;94141.63;;;11.11
67966;BMP280;54749;47.850;9.002;2023-10-19T08:05:35;94134.81;;;11.20
67966;BMP280;54749;47.850;9.002;2023-10-19T08:08:03;94142.06;;;11.22
67966;BMP280;54749;47.850;9.002;2023-10-19T08:10:33;94134.19;;;11.25
67966;BMP280;54749;47.850;9.002;2023-10-19T08:13:03;94128.31;;;11.33
67966;BMP280;54749;47.850;9.002;2023-10-19T08:15:31;94129.72;;;11.35
67966;BMP280;54749;47.850;9.002;2023-10-19T08:17:58;94124.38;;;11.38
67966;BMP280;54749;47.850;9.002;2023-10-19T08:20:25;94143.91;;;11.44
67966;BMP280;54749;47.850;9.002;2023-10-19T08:22:59;94139.66;;;11.44
67966;BMP280;54749;47.850;9.002;2023-10-19T08:25:29;94134.25;;;11.47
67966;BMP280;54749;47.850;9.002;2023-10-19T08:28:17;94106.94;;;11.43
67966;BMP280;54749;47.850;9.002;2023-10-19T08:30:44;94119.56;;;11.51
67966;BMP280;54749;47.850;9.002;2023-10-19T08:33:24;94120.47;;;11.57
67966;BMP280;54749;47.850;9.002;2023-10-19T08:35:57;94137.84;;;11.68
67966;BMP280;54749;47.850;9.002;2023-10-19T08:38:24;94125.44;;;11.81
67966;BMP280;54749;47.850;9.002;2023-10-19T08:40:53;94120.44;;;11.95
67966;BMP280;54749;47.850;9.002;2023-10-19T08:43:20;94120.22;;;12.04
67966;BMP280;54749;47.850;9.002;2023-10-19T08:45:48;94127.28;;;12.16
67966;BMP280;54749;47.850;9.002;2023-10-19T08:48:16;94124.50;;;12.25
67966;BMP280;54749;47.850;9.002;2023-10-19T08:50:44;94102.28;;;12.35
67966;BMP280;54749;47.850;9.002;2023-10-19T08:53:13;94090.75;;;12.55
67966;BMP280;54749;47.850;9.002;2023-10-19T08:55:41;94110.81;;;12.64
67966;BMP280;54749;47.850;9.002;2023-10-19T08:58:15;94085.47;;;12.78
67966;BMP280;54749;47.850;9.002;2023-10-19T09:00:51;94086.44;;;12.77
67966;BMP280;54749;47.850;9.002;2023-10-19T09:03:23;94081.31;;;12.85
67966;BMP280;54749;47.850;9.002;2023-10-19T09:05:53;94081.94;;;13.01
67966;BMP280;54749;47.850;9.002;2023-10-19T09:08:21;94087.00;;;13.15
67966;BMP280;54749;47.850;9.002;2023-10-19T09:10:50;94095.91;;;13.25
67966;BMP280;54749;47.850;9.002;2023-10-19T09:13:21;94105.91;;;13.27
67966;BMP280;54749;47.850;9.002;2023-10-19T09:15:51;94101.25;;;13.30
67966;BMP280;54749;47.850;9.002;2023-10-19T09:18:24;94104.41;;;13.32
67966;BMP280;54749;47.850;9.002;2023-10-19T09:20:56;94105.97;;;13.47
67966;BMP280;54749;47.850;9.002;2023-10-19T09:23:35;94082.50;;;13.59
67966;BMP280;54749;47.850;9.002;2023-10-19T09:26:04;94096.50;;;13.69
67966;BMP280;54749;47.850;9.002;2023-10-19T09:28:37;94104.50;;;13.81
67966;BMP280;54749;47.850;9.002;2023-10-19T09:31:06;94102.72;;;13.81
67966;BMP280;54749;47.850;9.002;2023-10-19T09:33:40;94097.91;;;13.86
67966;BMP280;54749;47.850;9.002;2023-10-19T09:36:09;94102.91;;;13.94
67966;BMP280;54749;47.850;9.002;2023-10-19T09:38:46;94105.31;;;14.02
67966;BMP280;54749;47.850;9.002;2023-10-19T09:41:21;94114.41;;;14.10
67966;BMP280;54749;47.850;9.002;2023-10-19T09:43:50;94120.19;;;14.04
67966;BMP280;54749;47.850;9.002;2023-10-19T09:46:30;94103.03;;;14.06
67966;BMP280;54749;47.850;9.002;2023-10-19T09:48:59;94082.34;;;14.09
67966;BMP280;54749;47.850;9.002;2023-10-19T09:51:26;94090.34;;;14.06
67966;BMP280;54749;47.850;9.002;2023-10-19T09:54:05;94075.72;;;13.94
67966;BMP280;54749;47.850;9.002;2023-10-19T09:56:38;94077.25;;;13.75
67966;BMP280;54749;47.850;9.002;2023-10-19T09:59:22;94071.44;;;13.46
67966;BMP280;54749;47.850;9.002;2023-10-19T10:02:10;94051.22;;;13.38
67966;BMP280;54749;47.850;9.002;2023-10-19T10:04:41;94047.97;;;13.44
67966;BMP280;54749;47.850;9.002;2023-10-19T10:07:09;94041.69;;;13.40
67966;BMP280;54749;47.850;9.002;2023-10-19T10:09:39;94037.25;;;13.28
67966;BMP280;54749;47.850;9.002;2023-10-19T10:12:24;94029.44;;;13.30
67966;BMP280;54749;47.850;9.002;2023-10-19T10:14:58;94036.69;;;13.47
67966;BMP280;54749;47.850;9.002;2023-10-19T10:17:27;94051.72;;;13.62
67966;BMP280;54749;47.850;9.002;2023-10-19T10:19:55;94061.47;;;13.79
67966;BMP280;54749;47.850;9.002;2023-10-19T10:22:24;94039.41;;;14.14
67966;BMP280;54749;47.850;9.002;2023-10-19T10:24:54;94040.13;;;14.49
67966;BMP280;54749;47.850;9.002;2023-10-19T10:27:23;94032.91;;;14.79
67966;BMP280;54749;47.850;9.002;2023-10-19T10:29:57;94015.31;;;15.05
67966;BMP280;54749;47.850;9.002;2023-10-19T10:32:47;94010.50;;;15.22
67966;BMP280;54749;47.850;9.002;2023-10-19T10:38:10;94014.63;;;15.81
67966;BMP280;54749;47.850;9.002;2023-10-19T10:40:45;93997.13;;;16.37
67966;BMP280;54749;47.850;9.002;2023-10-19T10:43:12;93984.75;;;16.78
67966;BMP280;54749;47.850;9.002;2023-10-19T10:45:39;93990.22;;;17.07
67966;BMP280;54749;47.850;9.002;2023-10-19T10:48:17;93980.97;;;17.06
67966;BMP280;54749;47.850;9.002;2023-10-19T10:50:44;93977.25;;;17.02
67966;BMP280;54749;47.850;9.002;2023-10-19T10:53:14;93982.97;;;17.04
67966;BMP280;54749;47.850;9.002;2023-10-19T10:55:45;93983.34;;;17.14
67966;BMP280;54749;47.850;9.002;2023-10-19T10:58:16;93970.84;;;17.49
67966;BMP280;54749;47.850;9.002;2023-10-19T11:00:45;93955.34;;;18.17
67966;BMP280;54749;47.850;9.002;2023-10-19T11:03:19;93972.66;;;18.62
67966;BMP280;54749;47.850;9.002;2023-10-19T11:05:46;93960.41;;;18.71
67966;BMP280;54749;47.850;9.002;2023-10-19T11:08:15;93956.91;;;18.89
67966;BMP280;54749;47.850;9.002;2023-10-19T11:10:48;93949.94;;;19.13
67966;BMP280;54749;47.850;9.002;2023-10-19T11:13:17;93943.31;;;19.41
67966;BMP280;54749;47.850;9.002;2023-10-19T11:15:51;93927.63;;;19.84
67966;BMP280;54749;47.850;9.002;2023-10-19T11:20:55;93919.09;;;20.74
67966;BMP280;54749;47.850;9.002;2023-10-19T11:26:03;93901.91;;;20.86
67966;BMP280;54749;47.850;9.002;2023-10-19T11:28:33;93909.38;;;20.99
67966;BMP280;54749;47.850;9.002;2023-10-19T11:31:11;93901.00;;;21.03
67966;BMP280;54749;47.850;9.002;2023-10-19T11:33:41;93868.19;;;21.16
67966;BMP280;54749;47.850;9.002;2023-10-19T11:36:10;93876.78;;;20.88
67966;BMP280;54749;47.850;9.002;2023-10-19T11:38:41;93883.63;;;20.71
67966;BMP280;54749;47.850;9.002;2023-10-19T11:41:08;93864.53;;;20.56
67966;BMP280;54749;47.850;9.002;2023-10-19T11:43:35;93872.56;;;20.37
67966;BMP280;54749;47.850;9.002;2023-10-19T11:46:03;93885.41;;;20.37
67966;BMP280;54749;47.850;9.002;2023-10-19T11:48:35;93902.28;;;20.16
67966;BMP280;54749;47.850;9.002;2023-10-19T11:51:03;93906.03;;;19.63
67966;BMP280;54749;47.850;9.002;2023-10-19T11:53:33;93902.19;;;19.36
67966;BMP280;54749;47.850;9.002;2023-10-19T11:56:05;93890.28;;;19.13
67966;BMP280;54749;47.850;9.002;2023-10-19T11:58:34;93896.06;;;19.09
67966;BMP280;54749;47.850;9.002;2023-10-19T12:01:02;93891.97;;;19.01
67966;BMP280;54749;47.850;9.002;2023-10-19T12:03:35;93896.84;;;18.92
67966;BMP280;54749;47.850;9.002;2023-10-19T12:06:04;93879.69;;;18.75
67966;BMP280;54749;47.850;9.002;2023-10-19T12:08:34;93874.88;;;18.43
67966;BMP280;54749;47.850;9.002;2023-10-19T12:11:02;93887.34;;;18.33
67966;BMP280;54749;47.850;9.002;2023-10-19T12:13:31;93886.59;;;18.09
67966;BMP280;54749;47.850;9.002;2023-10-19T12:15:59;93893.34;;;17.97
67966;BMP280;54749;47.850;9.002;2023-10-19T12:18:26;93889.88;;;17.86
67966;BMP280;54749;47.850;9.002;2023-10-19T12:20:55;93902.47;;;17.81
67966;BMP280;54749;47.850;9.002;2023-10-19T12:23:26;93897.34;;;17.81
67966;BMP280;54749;47.850;9.002;2023-10-19T12:25:53;93886.75;;;17.84
67966;BMP280;54749;47.850;9.002;2023-10-19T12:28:24;93910.38;;;17.73
67966;BMP280;54749;47.850;9.002;2023-10-19T12:30:52;93912.19;;;17.66
67966;BMP280;54749;47.850;9.002;2023-10-19T12:33:20;93928.94;;;17.56
67966;BMP280;54749;47.850;9.002;2023-10-19T12:35:47;93915.91;;;17.70
67966;BMP280;54749;47.850;9.002;2023-10-19T12:38:40;93902.22;;;17.95
67966;BMP280;54749;47.850;9.002;2023-10-19T12:41:07;93872.03;;;18.27
67966;BMP280;54749;47.850;9.002;2023-10-19T12:43:36;93881.69;;;18.49
67966;BMP280;54749;47.850;9.002;2023-10-19T12:46:03;93882.13;;;18.63
67966;BMP280;54749;47.850;9.002;2023-10-19T12:48:30;93886.66;;;18.61
67966;BMP280;54749;47.850;9.002;2023-10-19T12:51:04;93872.88;;;18.45
67966;BMP280;54749;47.850;9.002;2023-10-19T12:53:34;93874.66;;;18.21
67966;BMP280;54749;47.850;9.002;2023-10-19T12:56:01;93897.53;;;18.16
67966;BMP280;54749;47.850;9.002;2023-10-19T12:58:30;93884.63;;;18.28
67966;BMP280;54749;47.850;9.002;2023-10-19T13:00:59;93880.78;;;18.43
67966;BMP280;54749;47.850;9.002;2023-10-19T13:03:26;93871.69;;;18.65
67966;BMP280;54749;47.850;9.002;2023-10-19T13:05:55;93866.34;;;18.73
67966;BMP280;54749;47.850;9.002;2023-10-19T13:08:25;93862.00;;;18.73
67966;BMP280;54749;47.850;9.002;2023-10-19T13:10:54;93867.63;;;18.58
67966;BMP280;54749;47.850;9.002;2023-10-19T13:13:38;93870.56;;;18.61
67966;BMP280;54749;47.850;9.002;2023-10-19T13:16:06;93862.22;;;18.48
67966;BMP280;54749;47.850;9.002;2023-10-19T13:18:36;93855.31;;;18.31
67966;BMP280;54749;47.850;9.002;2023-10-19T13:21:03;93847.41;;;18.32
67966;BMP280;54749;47.850;9.002;2023-10-19T13:23:32;93862.84;;;18.26
67966;BMP280;54749;47.850;9.002;2023-10-19T13:26:06;93842.38;;;18.26
67966;BMP280;54749;47.850;9.002;2023-10-19T13:28:43;93851.97;;;18.30
67966;BMP280;54749;47.850;9.002;2023-10-19T13:31:10;93852.97;;;18.29
67966;BMP280;54749;47.850;9.002;2023-10-19T13:33:41;93861.63;;;18.28
67966;BMP280;54749;47.850;9.002;2023-10-19T13:36:13;93850.19;;;18.31
67966;BMP280;54749;47.850;9.002;2023-10-19T13:38:41;93849.78;;;18.34
67966;BMP280;54749;47.850;9.002;2023-10-19T13:41:08;93845.38;;;18.41
67966;BMP280;54749;47.850;9.002;2023-10-19T13:43:39;93853.47;;;18.38
67966;BMP280;54749;47.850;9.002;2023-10-19T13:46:06;93850.06;;;18.43
67966;BMP280;54749;47.850;9.002;2023-10-19T13:48:34;93859.16;;;18.40
67966;BMP280;54749;47.850;9.002;2023-10-19T13:51:01;93843.28;;;18.31
67966;BMP280;54749;47.850;9.002;2023-10-19T13:53:39;93840.03;;;18.24
67966;BMP280;54749;47.850;9.002;2023-10-19T13:56:10;93844.53;;;18.23
67966;BMP280;54749;47.850;9.002;2023-10-19T13:58:38;93825.50;;;18.19
67966;BMP280;54749;47.850;9.002;2023-10-19T14:01:07;93819.69;;;18.12
67966;BMP280;54749;47.850;9.002;2023-10-19T14:03:37;93832.50;;;18.29
67966;BMP280;54749;47.850;9.002;2023-10-19T14:06:05;93816.34;;;18.53
67966;BMP280;54749;47.850;9.002;2023-10-19T14:08:38;93800.06;;;18.47
67966;BMP280;54749;47.850;9.002;2023-10-19T14:11:05;93819.00;;;18.58
67966;BMP280;54749;47.850;9.002;2023-10-19T14:13:34;93837.66;;;18.64
67966;BMP280;54749;47.850;9.002;2023-10-19T14:16:06;93842.50;;;18.72
67966;BMP280;54749;47.850;9.002;2023-10-19T14:18:36;93828.50;;;18.75
67966;BMP280;54749;47.850;9.002;2023-10-19T14:21:11;93824.03;;;18.70
67966;BMP280;54749;47.850;9.002;2023-10-19T14:23:39;93827.97;;;18.66
67966;BMP280;54749;47.850;9.002;2023-10-19T14:26:09;93826.28;;;18.60
67966;BMP280;54749;47.850;9.002;2023-10-19T14:28:36;93835.00;;;18.53
67966;BMP280;54749;47.850;9.002;2023-10-19T14:31:04;93838.94;;;18.56
67966;BMP280;54749;47.850;9.002;2023-10-19T14:33:31;93826.78;;;18.51
67966;BMP280;54749;47.850;9.002;2023-10-19T14:35:59;93813.78;;;18.53
67966;BMP280;54749;47.850;9.002;2023-10-19T14:38:27;93806.09;;;18.53
67966;BMP280;54749;47.850;9.002;2023-10-19T14:40:54;93796.41;;;18.37
67966;BMP280;54749;47.850;9.002;2023-10-19T14:43:22;93781.41;;;18.23